Latest Weather Observations for Young

IDN60801

Issued at 3:32 pm EDT Saturday 21 October 2017 (issued every 30 minutes, with the page automatically refreshed every 10 minutes)

About weather observations | Map of weather stations | Latest weather observations for NSW | Other Formats
Station Details ID: 073138 Name: YOUNG AIRPORT Lat: -34.25 Lon: 148.25 Height: 379.6 m
Data from the previous 72 hours. | See also: Recent months at Young
Date/Time
EDT
Temp
°C
App
Temp
°C
Dew
Point
°C
Rel
Hum
%
Delta-T
°C
Wind Press
QNH
hPa
Press
MSL
hPa
Rain since
9am
mm
Dir  Spd
km/h
Gust
km/h
Spd
kts
Gust
kts
21/03:30pm 20.5 18.1 8.5 46 6.4 S 11 20 6 11 1017.8 1017.4 0.0
21/03:00pm 19.8 16.8 6.2 41 6.9 SW 11 20 6 11 1018.2 1017.8 0.0
21/02:30pm 19.7 16.0 6.4 42 6.8 SW 15 24 8 13 1018.7 1018.3 0.0
21/02:00pm 19.1 16.0 7.2 46 6.1 SSE 13 24 7 13 1019.1 1018.8 0.0
21/01:30pm 19.3 15.9 7.7 47 6.0 SSE 15 24 8 13 1019.5 1019.2 0.0
21/01:00pm 18.7 16.0 7.2 47 5.9 SE 11 20 6 11 1019.8 1019.5 0.0
21/12:30pm 18.9 16.7 10.7 59 4.5 ESE 13 22 7 12 1020.3 1019.9 0.0
21/12:00pm 17.8 15.0 8.4 54 4.9 SSE 13 22 7 12 1020.7 1020.3 0.0
21/11:30am 17.6 15.3 9.0 57 4.6 S 11 20 6 11 1021.0 1020.6 0.0
21/11:00am 17.5 15.2 8.9 57 4.5 SE 11 20 6 11 1021.2 1020.9 0.0
21/10:30am 15.9 12.9 7.7 58 4.2 ESE 13 20 7 11 1021.5 1021.2 0.0
21/10:00am 15.6 12.3 8.1 61 3.8 E 15 22 8 12 1021.5 1021.2 0.0
21/09:30am 14.5 10.8 7.8 64 3.4 ESE 17 26 9 14 1021.6 1021.3 0.0
21/09:00am 14.2 11.1 8.8 70 2.8 ESE 15 24 8 13 1021.7 1021.4 0.0
21/08:30am 12.9 9.2 7.8 71 2.6 ESE 17 26 9 14 1021.5 1021.2 0.0
21/08:00am 12.1 9.2 8.0 76 2.0 ESE 13 20 7 11 1021.5 1021.2 0.0
21/07:30am 10.2 8.5 7.4 83 1.4 S 6 9 3 5 1021.6 1021.3 0.0
21/07:00am 9.0 8.5 7.8 92 0.6 CALM 0 0 0 0 1021.5 1021.2 0.0
21/06:30am 7.5 5.3 6.3 92 0.6 SSW 7 9 4 5 1021.5 1021.2 0.0
21/06:00am 8.2 5.8 6.8 91 0.7 SSE 9 9 5 5 1021.4 1021.1 0.0
21/05:30am 9.0 7.0 7.0 87 1.0 S 7 9 4 5 1021.3 1021.0 0.0
21/05:00am 9.6 7.8 7.2 85 1.2 SE 6 9 3 5 1021.4 1021.1 0.0
21/04:30am 9.7 7.9 7.0 83 1.3 E 6 11 3 6 1021.5 1021.2 0.0
21/04:00am 10.6 7.9 7.3 80 1.6 ESE 11 19 6 10 1021.8 1021.5 0.0
21/03:30am 11.2 8.3 8.1 81 1.5 SE 13 19 7 10 1021.8 1021.5 0.0
21/03:00am 12.1 9.4 8.8 80 1.7 SE 13 20 7 11 1022.1 1021.8 0.0
21/02:30am 11.1 9.5 8.8 86 1.2 SE 7 11 4 6 1022.2 1021.9 0.0
21/02:00am 11.0 9.4 8.6 85 1.2 ESE 7 13 4 7 1022.4 1022.1 0.0
21/01:30am 11.0 9.0 8.6 85 1.2 S 9 15 5 8 1022.5 1022.2 0.0
21/01:00am 11.8 8.7 8.8 82 1.5 SE 15 20 8 11 1022.6 1022.3 0.0
21/12:30am 12.0 9.3 9.0 82 1.5 SE 13 19 7 10 1022.6 1022.3 0.0
21/12:00am 12.2 9.1 9.0 81 1.6 SE 15 22 8 12 1022.7 1022.4 0.0
 
Date/Time
EDT
Temp
°C
App
Temp
°C
Dew
Point
°C
Rel
Hum
%
Delta-T
°C
Wind Press
QNH
hPa
Press
MSL
hPa
Rain since
9am
mm
Dir  Spd
km/h
Gust
km/h
Spd
kts
Gust
kts
20/11:30pm 12.2 9.5 8.9 80 1.7 SE 13 22 7 12 1022.6 1022.3 0.0
20/11:00pm 12.3 8.9 9.0 80 1.7 SE 17 26 9 14 1022.6 1022.3 0.0
20/10:30pm 12.5 8.7 9.0 79 1.8 SE 19 24 10 13 1022.6 1022.3 0.0
20/10:00pm 12.9 9.0 9.4 79 1.8 SE 20 32 11 17 1022.4 1022.1 0.0
20/09:30pm 13.2 10.0 10.0 81 1.7 SE 17 26 9 14 1022.2 1021.9 0.0
20/09:00pm 13.6 10.4 10.0 79 1.9 SE 17 28 9 15 1022.2 1021.9 0.0
20/08:30pm 14.1 11.1 10.7 80 1.8 SE 17 24 9 13 1021.8 1021.5 0.0
20/08:00pm 15.2 12.4 11.4 78 2.1 SSE 17 22 9 12 1021.1 1020.7 0.0
20/07:30pm 16.7 12.8 7.1 53 4.9 S 17 22 9 12 1020.3 1019.9 0.0
20/07:00pm 18.8 14.6 3.8 37 7.2 SW 15 19 8 10 1019.3 1019.0 0.0
20/06:30pm 20.4 15.2 2.7 31 8.4 SW 19 24 10 13 1019.0 1018.7 0.0
20/06:00pm 21.4 16.3 4.0 32 8.6 SW 20 30 11 16 1018.7 1018.3 0.0
20/05:30pm 22.0 17.5 6.3 36 8.1 SW 19 30 10 16 1018.7 1018.3 0.0
20/05:00pm 22.1 16.7 6.3 36 8.1 SW 24 33 13 18 1018.5 1018.1 0.0
20/04:30pm 21.8 17.1 9.3 45 6.8 SSW 24 32 13 17 1018.6 1018.2 0.0
20/04:00pm 21.9 18.4 12.2 54 5.6 SW 22 32 12 17 1018.6 1018.2 0.0
20/03:30pm 22.5 20.0 14.1 59 5.0 WSW 20 30 11 16 1018.6 1018.2 0.0
20/03:00pm 21.1 19.0 15.2 69 3.5 WSW 20 32 11 17 1019.0 1018.7 0.0
20/02:30pm 19.9 18.7 16.2 79 2.3 WSW 17 24 9 13 1019.6 1019.3 0.0
20/02:00pm 18.7 16.4 15.8 83 1.7 WSW 22 35 12 19 1019.9 1019.6 0.0
20/01:30pm 19.3 18.0 16.7 85 1.6 WSW 19 26 10 14 1019.9 1019.6 0.0
20/01:00pm 20.2 19.9 17.4 84 1.7 WSW 15 22 8 12 1019.7 1019.4 0.0
20/12:30pm 19.5 19.0 16.9 85 1.6 WSW 15 20 8 11 1020.0 1019.7 0.0
20/12:00pm 20.3 20.1 17.5 84 1.7 WSW 15 20 8 11 1020.0 1019.7 0.0
20/11:30am 19.6 19.1 17.9 90 1.1 SW 17 24 9 13 1020.1 1019.8 0.0
20/11:00am 19.8 19.6 17.6 87 1.4 SW 15 19 8 10 1020.4 1020.0 0.0
20/10:30am 19.1 21.6 17.2 89 1.2 CALM 0 0 0 0 1020.6 1020.2 0.0
20/10:00am 18.6 20.4 17.3 92 0.8 SE 4 7 2 4 1020.6 1020.2 0.0
20/09:30am 18.0 19.8 17.4 96 0.4 S 4 7 2 4 1020.6 1020.2 0.0
20/09:00am 17.4 18.7 17.2 99 0.1 ESE 6 7 3 4 1020.3 1019.9 11.4
20/08:30am 17.0 17.6 16.8 99 0.1 SSE 9 11 5 6 1019.9 1019.6 11.4
20/08:00am 17.1 19.5 17.1 100 0.0 CALM 0 0 0 0 1019.7 1019.4 11.4
20/07:30am 16.8 18.4 16.8 100 0.0 WNW 4 7 2 4 1019.6 1019.3 11.4
20/07:00am 16.9 17.9 16.9 100 0.0 SSW 7 9 4 5 1019.3 1019.0 11.2
20/06:30am 16.8 17.8 16.8 100 0.0 SSW 7 9 4 5 1019.1 1018.8 11.2
20/06:00am 16.7 17.6 16.7 100 0.0 SSE 7 9 4 5 1018.7 1018.3 11.2
20/05:30am 16.9 19.3 16.9 100 0.0 CALM 0 0 0 0 1018.5 1018.1 11.2
20/05:00am 16.9 19.3 16.9 100 0.0 CALM 0 0 0 0 1018.7 1018.3 11.2
20/04:30am 17.0 18.3 17.0 100 0.0 SSW 6 11 3 6 1018.8 1018.4 11.2
20/04:00am 17.0 19.4 17.0 100 0.0 CALM 0 6 0 3 1018.4 1018.0 11.0
20/03:30am 17.1 19.5 17.1 100 0.0 CALM 0 0 0 0 1018.8 1018.4 10.8
20/03:00am 17.2 18.3 17.2 100 0.0 NNE 7 9 4 5 1019.2 1018.9 10.6
20/02:30am 17.4 18.8 17.4 100 0.0 NNW 6 7 3 4 1019.7 1019.4 10.2
20/02:00am 17.5 20.1 17.5 100 0.0 CALM 0 0 0 0 1020.0 1019.7 8.0
20/01:30am 17.7 20.3 17.5 99 0.1 CALM 0 0 0 0 1020.6 1020.2 6.4
20/01:00am 17.9 18.9 17.7 99 0.1 S 9 13 5 7 1020.7 1020.3 5.2
20/12:30am 18.1 19.2 18.1 100 0.0 SSW 9 11 5 6 1021.1 1020.7 4.6
20/12:00am 18.2 19.8 18.2 100 0.0 SSW 7 9 4 5 1021.3 1021.0 4.4
 
Date/Time
EDT
Temp
°C
App
Temp
°C
Dew
Point
°C
Rel
Hum
%
Delta-T
°C
Wind Press
QNH
hPa
Press
MSL
hPa
Rain since
9am
mm
Dir  Spd
km/h
Gust
km/h
Spd
kts
Gust
kts
19/11:30pm 18.2 20.3 18.2 100 0.0 S 4 7 2 4 1021.3 1021.0 3.8
19/11:00pm 18.1 21.0 18.1 100 0.0 CALM 0 0 0 0 1021.1 1020.7 3.8
19/10:30pm 18.1 19.2 18.1 100 0.0 SSW 9 15 5 8 1020.8 1020.4 3.6
19/10:00pm 18.2 20.7 18.2 100 0.0 WNW 2 7 1 4 1020.6 1020.2 3.2
19/09:30pm 18.2 21.0 18.0 99 0.1 CALM 0 0 0 0 1020.9 1020.5 2.4
19/09:00pm 18.4 20.2 18.2 99 0.1 SSW 6 7 3 4 1020.8 1020.4 2.0
19/08:30pm 18.3 19.7 17.8 97 0.3 SE 7 9 4 5 1020.9 1020.5 1.6
19/08:00pm 19.1 19.2 17.4 90 1.1 S 13 19 7 10 1020.6 1020.2 0.0
19/07:30pm 20.1 19.3 16.1 78 2.4 S 15 22 8 12 1020.1 1019.8 0.0
19/07:00pm 21.4 20.0 15.5 69 3.6 SSW 17 22 9 12 1019.6 1019.3 0.0
19/06:30pm 22.7 21.2 15.3 63 4.5 SSW 17 24 9 13 1019.4 1019.1 0.0
19/06:00pm 24.6 23.3 13.8 51 6.4 NNW 13 19 7 10 1019.4 1019.1 0.0
19/05:30pm 25.2 23.8 13.4 48 7.0 NNW 13 20 7 11 1019.4 1019.1 0.0
19/05:00pm 25.6 26.1 14.1 49 6.9 ENE 4 7 2 4 1019.4 1019.1 0.0
19/04:30pm 25.2 24.9 14.3 50 6.6 NW 9 15 5 8 1019.5 1019.2 0.0
19/04:00pm 25.5 24.2 14.9 52 6.4 NNW 15 22 8 12 1019.8 1019.5 0.0
19/03:30pm 25.7 24.4 15.7 54 6.2 NNW 17 24 9 13 1020.1 1019.8 0.0
19/03:00pm 24.8 22.8 14.0 51 6.5 NNW 17 28 9 15 1020.7 1020.3 0.0
19/02:30pm 23.8 22.7 15.3 59 5.2 N 15 20 8 11 1021.3 1021.0 0.0
19/02:00pm 23.9 21.4 13.4 51 6.2 NNW 19 28 10 15 1021.8 1021.5 0.0
19/01:30pm 24.2 21.5 13.4 51 6.4 N 20 32 11 17 1022.1 1021.8 0.0
19/01:00pm 24.4 20.8 13.0 49 6.7 NNW 24 35 13 19 1022.2 1021.9 0.0
19/12:30pm 24.2 20.6 13.1 50 6.5 NNW 24 33 13 18 1022.5 1022.2 0.0
19/12:00pm 24.4 21.0 13.6 51 6.4 N 24 35 13 19 1022.8 1022.5 0.0
19/11:30am 24.3 20.7 12.9 49 6.7 NNW 24 33 13 18 1023.2 1022.8 0.0
19/11:00am 23.6 20.0 12.9 51 6.2 NNW 24 35 13 19 1023.5 1023.2 0.0
19/10:30am 23.7 20.1 13.0 51 6.3 NNW 24 37 13 20 1023.7 1023.4 0.0
19/10:00am 23.6 19.7 13.2 52 6.1 NNW 26 39 14 21 1023.8 1023.5 0.0
19/09:30am 22.8 19.5 12.7 53 5.9 N 22 35 12 19 1023.8 1023.5 0.0
19/09:00am 22.1 18.7 12.4 54 5.6 N 22 32 12 17 1023.7 1023.4 0.0
19/08:30am 21.1 18.2 12.8 59 4.8 N 20 33 11 18 1023.9 1023.6 0.0
19/08:00am 18.5 18.3 13.1 71 3.1 NNE 6 11 3 6 1023.9 1023.6 0.0
19/07:30am 15.2 15.7 12.9 86 1.3 SW 2 6 1 3 1023.6 1023.3 0.0
19/07:00am 12.5 12.9 11.4 93 0.6 CALM 0 0 0 0 1023.3 1022.9 0.0
19/06:30am 11.2 11.4 10.6 96 0.3 CALM 0 0 0 0 1022.8 1022.5 0.0
19/06:00am 10.8 10.8 9.9 94 0.5 CALM 0 0 0 0 1022.7 1022.4 0.0
19/05:30am 11.3 10.4 10.5 95 0.4 SW 6 7 3 4 1022.4 1022.1 0.0
19/05:00am 11.2 10.1 10.7 97 0.3 SW 7 9 4 5 1022.1 1021.8 0.0
19/04:30am 11.2 10.2 10.3 94 0.5 S 6 7 3 4 1022.1 1021.8 0.0
19/04:00am 11.0 9.9 10.1 94 0.5 SW 6 7 3 4 1022.1 1021.8 0.0
19/03:30am 10.9 9.7 9.7 92 0.6 SW 6 7 3 4 1022.0 1021.7 0.0
19/03:00am 11.2 10.1 10.1 93 0.6 SW 6 7 3 4 1022.2 1021.9 0.0
19/02:30am 11.5 11.1 9.8 89 0.9 S 2 6 1 3 1022.5 1022.2 0.0
19/02:00am 11.7 10.6 9.8 88 1.0 S 6 9 3 5 1022.6 1022.3 0.0
19/01:30am 11.5 10.4 9.8 89 0.9 S 6 7 3 4 1022.7 1022.4 0.0
19/01:00am 11.8 10.7 9.9 88 1.0 SW 6 7 3 4 1022.7 1022.4 0.0
19/12:30am 11.5 10.3 9.6 88 1.0 WSW 6 7 3 4 1022.8 1022.5 0.0
19/12:00am 12.2 12.2 9.8 85 1.2 CALM 0 0 0 0 1022.9 1022.6 0.0
 
Date/Time
EDT
Temp
°C
App
Temp
°C
Dew
Point
°C
Rel
Hum
%
Delta-T
°C
Wind Press
QNH
hPa
Press
MSL
hPa
Rain since
9am
mm
Dir  Spd
km/h
Gust
km/h
Spd
kts
Gust
kts
18/11:30pm 11.9 11.0 9.3 84 1.3 WSW 4 7 2 4 1023.2 1022.8 0.0
18/11:00pm 12.6 11.8 9.6 82 1.6 S 4 6 2 3 1022.9 1022.6 0.0
18/10:30pm 13.1 11.8 9.9 81 1.7 SW 7 11 4 6 1022.9 1022.6 0.0
18/10:00pm 13.9 13.7 10.3 79 1.9 S 2 9 1 5 1022.8 1022.5 0.0
18/09:30pm 14.6 13.7 10.6 77 2.1 SSW 6 7 3 4 1022.6 1022.3 0.0
18/09:00pm 15.5 14.5 10.3 71 2.8 SSW 6 7 3 4 1022.4 1022.1 0.0
18/08:30pm 16.8 15.7 10.6 67 3.4 SSW 7 9 4 5 1022.0 1021.7 0.0
18/08:00pm 18.0 16.7 10.1 60 4.3 SW 7 9 4 5 1021.6 1021.3 0.0
18/07:30pm 20.5 20.5 9.7 50 5.9 CALM 0 7 0 4 1021.5 1021.2 0.0
18/07:00pm 24.2 22.1 8.2 36 8.6 ENE 9 11 5 6 1021.3 1021.0 0.0
18/06:30pm 25.8 23.7 8.3 33 9.6 NE 9 15 5 8 1021.1 1020.7 0.0
18/06:00pm 26.7 23.8 6.7 28 10.7 NNE 11 19 6 10 1021.2 1020.9 0.0
18/05:30pm 27.1 23.1 6.5 27 11.0 NNE 17 28 9 15 1021.2 1020.9 0.0
18/05:00pm 27.3 24.2 7.2 28 10.8 NE 13 20 7 11 1021.2 1020.9 0.0
18/04:30pm 27.2 23.6 6.6 27 11.0 ENE 15 20 8 11 1021.3 1021.0 0.0
18/04:00pm 27.0 23.2 7.5 29 10.6 NNE 17 20 9 11 1021.5 1021.2 0.0

Other Formats:

Comma delimited format used in spreadsheet applications
http://www.bom.gov.au/fwo/IDN60801/IDN60801.94712.axf

JavaScript Object Notation format (JSON) in row-major order
http://www.bom.gov.au/fwo/IDN60801/IDN60801.94712.json